Terminal Aerodrome Forecast
Issued by NWS

Home | Current Version | Previous Version | Text Only | Print | Product List | Glossary On
Versions: 1 2 3 4 5 6 7 8 9 10 11 12 13 14 15 16 17 18 19 20 21 22 23 24 25 26
299
FTUS46 KMFR 131139
TAFRBG
TAF
KRBG 131139Z 1312/1412 00000KT P6SM -RA BKN040 OVC060
     FM131400 00000KT 3SM -RA BR OVC010
     FM132100 36001KT P6SM -SHRA OVC030
     FM140100 00000KT P6SM VCSH BKN015 OVC030
     FM140700 35001KT P6SM OVC003
     FM140800 00000KT 1/4SM FG OVC003=

USA.gov is the U.S. government's official web portal to all federal, state and local government web resources and services.